sensor_id;sensor_type;location;lat;lon;timestamp;pressure;altitude;pressure_sealevel;temperature;humidity
81931;BME280;71395;43.488;1.472;2023-11-19T00:00:29;100500.53;;;22.92;43.46
81931;BME280;71395;43.488;1.472;2023-11-19T00:02:55;100489.75;;;22.87;43.32
81931;BME280;71395;43.488;1.472;2023-11-19T00:05:20;100497.50;;;22.93;43.23
81931;BME280;71395;43.488;1.472;2023-11-19T00:07:46;100497.50;;;22.93;43.15
81931;BME280;71395;43.488;1.472;2023-11-19T00:10:13;100496.69;;;22.93;42.52
81931;BME280;71395;43.488;1.472;2023-11-19T00:12:43;100496.69;;;22.93;42.76
81931;BME280;71395;43.488;1.472;2023-11-19T00:15:10;100495.91;;;22.92;42.50
81931;BME280;71395;43.488;1.472;2023-11-19T00:17:42;100493.47;;;22.91;43.09
81931;BME280;71395;43.488;1.472;2023-11-19T00:20:11;100497.34;;;22.90;42.96
81931;BME280;71395;43.488;1.472;2023-11-19T00:22:37;100490.72;;;22.82;42.39
81931;BME280;71395;43.488;1.472;2023-11-19T00:25:03;100496.03;;;22.87;42.04
81931;BME280;71395;43.488;1.472;2023-11-19T00:27:29;100484.47;;;22.82;42.00
81931;BME280;71395;43.488;1.472;2023-11-19T00:29:54;100482.88;;;22.81;42.03
81931;BME280;71395;43.488;1.472;2023-11-19T00:32:20;100479.81;;;22.82;41.95
81931;BME280;71395;43.488;1.472;2023-11-19T00:34:45;100489.94;;;22.82;42.47
81931;BME280;71395;43.488;1.472;2023-11-19T00:37:15;100493.81;;;22.81;41.79
81931;BME280;71395;43.488;1.472;2023-11-19T00:39:41;100480.31;;;22.76;41.88
81931;BME280;71395;43.488;1.472;2023-11-19T00:42:07;100479.38;;;22.71;42.12
81931;BME280;71395;43.488;1.472;2023-11-19T00:44:32;100472.47;;;22.65;41.81
81931;BME280;71395;43.488;1.472;2023-11-19T00:46:58;100463.81;;;22.63;41.60
81931;BME280;71395;43.488;1.472;2023-11-19T00:49:25;100463.94;;;22.67;41.77
81931;BME280;71395;43.488;1.472;2023-11-19T00:51:50;100464.91;;;22.62;42.02
81931;BME280;71395;43.488;1.472;2023-11-19T00:54:15;100463.81;;;22.63;41.56
81931;BME280;71395;43.488;1.472;2023-11-19T00:56:41;100465.75;;;22.63;42.25
81931;BME280;71395;43.488;1.472;2023-11-19T00:59:06;100471.03;;;22.68;42.05
81931;BME280;71395;43.488;1.472;2023-11-19T01:01:32;100463.63;;;22.68;42.05
81931;BME280;71395;43.488;1.472;2023-11-19T01:03:58;100463.16;;;22.66;42.29
81931;BME280;71395;43.488;1.472;2023-11-19T01:06:28;100456.53;;;22.67;42.19
81931;BME280;71395;43.488;1.472;2023-11-19T01:08:53;100459.78;;;22.69;42.08
81931;BME280;71395;43.488;1.472;2023-11-19T01:11:20;100463.75;;;22.72;41.92
81931;BME280;71395;43.488;1.472;2023-11-19T01:13:46;100457.50;;;22.71;42.10
81931;BME280;71395;43.488;1.472;2023-11-19T01:16:11;100459.78;;;22.69;42.34
81931;BME280;71395;43.488;1.472;2023-11-19T01:18:38;100474.06;;;22.75;42.03
81931;BME280;71395;43.488;1.472;2023-11-19T01:21:04;100474.66;;;22.81;42.18
81931;BME280;71395;43.488;1.472;2023-11-19T01:23:29;100469.69;;;22.83;42.07
81931;BME280;71395;43.488;1.472;2023-11-19T01:25:55;100473.53;;;22.82;42.42
81931;BME280;71395;43.488;1.472;2023-11-19T01:28:20;100477.22;;;22.86;42.42
81931;BME280;71395;43.488;1.472;2023-11-19T01:30:45;100478.53;;;22.88;42.11
81931;BME280;71395;43.488;1.472;2023-11-19T01:33:11;100477.72;;;22.88;41.87
81931;BME280;71395;43.488;1.472;2023-11-19T01:35:36;100485.75;;;22.93;41.88
81931;BME280;71395;43.488;1.472;2023-11-19T01:38:02;100488.97;;;22.95;42.05
81931;BME280;71395;43.488;1.472;2023-11-19T01:40:27;100486.69;;;22.97;41.73
81931;BME280;71395;43.488;1.472;2023-11-19T01:42:52;100489.56;;;23.01;42.44
81931;BME280;71395;43.488;1.472;2023-11-19T01:45:29;100485.38;;;23.03;42.44
81931;BME280;71395;43.488;1.472;2023-11-19T01:47:56;100474.94;;;22.96;42.27
81931;BME280;71395;43.488;1.472;2023-11-19T01:50:22;100487.13;;;23.08;42.13
81931;BME280;71395;43.488;1.472;2023-11-19T01:52:53;100484.59;;;23.03;42.22
81931;BME280;71395;43.488;1.472;2023-11-19T01:55:20;100499.81;;;23.12;42.62
81931;BME280;71395;43.488;1.472;2023-11-19T01:57:48;100495.63;;;23.15;42.32
81931;BME280;71395;43.488;1.472;2023-11-19T02:00:14;100490.47;;;23.13;42.31
81931;BME280;71395;43.488;1.472;2023-11-19T02:02:41;100496.91;;;23.17;42.28
81931;BME280;71395;43.488;1.472;2023-11-19T02:05:07;100488.34;;;23.19;42.10
81931;BME280;71395;43.488;1.472;2023-11-19T02:07:32;100481.75;;;23.20;42.49
81931;BME280;71395;43.488;1.472;2023-11-19T02:09:57;100477.56;;;23.23;42.51
81931;BME280;71395;43.488;1.472;2023-11-19T02:12:27;100494.25;;;23.30;41.44
81931;BME280;71395;43.488;1.472;2023-11-19T02:14:59;100482.84;;;23.28;42.22
81931;BME280;71395;43.488;1.472;2023-11-19T02:17:28;100485.38;;;23.33;41.81
81931;BME280;71395;43.488;1.472;2023-11-19T02:19:56;100481.50;;;23.34;42.13
81931;BME280;71395;43.488;1.472;2023-11-19T02:22:22;100482.91;;;23.40;41.99
81931;BME280;71395;43.488;1.472;2023-11-19T02:24:49;100477.91;;;23.42;42.04
81931;BME280;71395;43.488;1.472;2023-11-19T02:27:26;100481.47;;;23.42;41.71
81931;BME280;71395;43.488;1.472;2023-11-19T02:29:55;100483.50;;;23.45;41.73
81931;BME280;71395;43.488;1.472;2023-11-19T02:32:22;100482.25;;;23.43;42.06
81931;BME280;71395;43.488;1.472;2023-11-19T02:34:47;100483.31;;;23.51;42.10
81931;BME280;71395;43.488;1.472;2023-11-19T02:37:12;100461.81;;;23.40;41.99
81931;BME280;71395;43.488;1.472;2023-11-19T02:39:40;100477.53;;;23.52;41.71
81931;BME280;71395;43.488;1.472;2023-11-19T02:42:07;100480.88;;;23.58;41.81
81931;BME280;71395;43.488;1.472;2023-11-19T02:44:33;100475.06;;;23.59;41.87
81931;BME280;71395;43.488;1.472;2023-11-19T02:46:59;100467.50;;;23.56;41.64
81931;BME280;71395;43.488;1.472;2023-11-19T02:49:25;100475.50;;;23.61;41.68
81931;BME280;71395;43.488;1.472;2023-11-19T02:51:50;100476.47;;;23.65;41.88
81931;BME280;71395;43.488;1.472;2023-11-19T02:54:16;100479.34;;;23.69;41.53
81931;BME280;71395;43.488;1.472;2023-11-19T02:56:44;100472.59;;;23.66;41.34
81931;BME280;71395;43.488;1.472;2023-11-19T02:59:13;100467.94;;;23.67;41.47
81931;BME280;71395;43.488;1.472;2023-11-19T03:01:52;100472.53;;;23.75;41.68
81931;BME280;71395;43.488;1.472;2023-11-19T03:04:17;100473.03;;;23.77;41.78
81931;BME280;71395;43.488;1.472;2023-11-19T03:06:45;100473.47;;;23.79;41.30
81931;BME280;71395;43.488;1.472;2023-11-19T03:09:10;100463.66;;;23.78;41.41
81931;BME280;71395;43.488;1.472;2023-11-19T03:11:36;100462.53;;;23.79;41.12
81931;BME280;71395;43.488;1.472;2023-11-19T03:14:01;100446.66;;;23.72;41.31
81931;BME280;71395;43.488;1.472;2023-11-19T03:16:28;100458.50;;;23.77;41.44
81931;BME280;71395;43.488;1.472;2023-11-19T03:18:54;100463.97;;;23.77;41.17
81931;BME280;71395;43.488;1.472;2023-11-19T03:21:27;100465.59;;;23.78;40.88
81931;BME280;71395;43.488;1.472;2023-11-19T03:23:52;100448.66;;;23.63;40.42
81931;BME280;71395;43.488;1.472;2023-11-19T03:26:18;100464.66;;;23.73;40.47
81931;BME280;71395;43.488;1.472;2023-11-19T03:28:43;100458.41;;;23.73;40.18
81931;BME280;71395;43.488;1.472;2023-11-19T03:31:08;100461.44;;;23.71;40.10
81931;BME280;71395;43.488;1.472;2023-11-19T03:33:34;100461.44;;;23.71;40.10
81931;BME280;71395;43.488;1.472;2023-11-19T03:35:59;100460.53;;;23.67;40.05
81931;BME280;71395;43.488;1.472;2023-11-19T03:38:25;100459.41;;;23.68;40.08
81931;BME280;71395;43.488;1.472;2023-11-19T03:40:50;100467.75;;;23.72;39.80
81931;BME280;71395;43.488;1.472;2023-11-19T03:43:16;100463.59;;;23.66;39.88
81931;BME280;71395;43.488;1.472;2023-11-19T03:45:41;100464.38;;;23.66;39.62
81931;BME280;71395;43.488;1.472;2023-11-19T03:48:07;100447.22;;;23.57;39.46
81931;BME280;71395;43.488;1.472;2023-11-19T03:50:32;100445.41;;;23.61;39.45
81931;BME280;71395;43.488;1.472;2023-11-19T03:52:57;100459.59;;;23.63;39.45
81931;BME280;71395;43.488;1.472;2023-11-19T03:55:23;100452.34;;;23.59;39.21
81931;BME280;71395;43.488;1.472;2023-11-19T03:57:48;100455.44;;;23.57;39.42
81931;BME280;71395;43.488;1.472;2023-11-19T04:00:14;100446.28;;;23.53;39.26
81931;BME280;71395;43.488;1.472;2023-11-19T04:02:40;100467.19;;;23.58;39.51
81931;BME280;71395;43.488;1.472;2023-11-19T04:05:06;100460.78;;;23.54;39.40
81931;BME280;71395;43.488;1.472;2023-11-19T04:07:32;100463.84;;;23.52;39.48
81931;BME280;71395;43.488;1.472;2023-11-19T04:09:58;100465.75;;;23.52;39.00
81931;BME280;71395;43.488;1.472;2023-11-19T04:12:23;100459.69;;;23.46;39.31
81931;BME280;71395;43.488;1.472;2023-11-19T04:14:49;100459.69;;;23.46;39.12
81931;BME280;71395;43.488;1.472;2023-11-19T04:17:14;100465.84;;;23.43;39.05
81931;BME280;71395;43.488;1.472;2023-11-19T04:19:40;100467.63;;;23.39;39.29
81931;BME280;71395;43.488;1.472;2023-11-19T04:22:07;100447.66;;;23.17;39.49
81931;BME280;71395;43.488;1.472;2023-11-19T04:24:34;100464.50;;;23.28;39.06
81931;BME280;71395;43.488;1.472;2023-11-19T04:26:59;100444.59;;;23.19;39.15
81931;BME280;71395;43.488;1.472;2023-11-19T04:29:25;100460.81;;;23.24;38.81
81931;BME280;71395;43.488;1.472;2023-11-19T04:31:50;100465.00;;;23.21;39.22
81931;BME280;71395;43.488;1.472;2023-11-19T04:34:15;100464.34;;;23.25;39.21
81931;BME280;71395;43.488;1.472;2023-11-19T04:36:41;100459.31;;;23.27;39.34
81931;BME280;71395;43.488;1.472;2023-11-19T04:39:06;100471.91;;;23.28;39.13
81931;BME280;71395;43.488;1.472;2023-11-19T04:41:47;100464.50;;;23.28;38.91
81931;BME280;71395;43.488;1.472;2023-11-19T04:44:14;100476.22;;;23.29;39.06
81931;BME280;71395;43.488;1.472;2023-11-19T04:46:41;100472.34;;;23.30;39.31
81931;BME280;71395;43.488;1.472;2023-11-19T04:49:08;100468.47;;;23.31;39.41
81931;BME280;71395;43.488;1.472;2023-11-19T04:51:42;100459.28;;;23.35;39.46
81931;BME280;71395;43.488;1.472;2023-11-19T04:54:08;100447.72;;;23.30;39.46
81931;BME280;71395;43.488;1.472;2023-11-19T04:56:34;100451.41;;;23.34;39.02
81931;BME280;71395;43.488;1.472;2023-11-19T04:59:00;100464.75;;;23.35;39.31
81931;BME280;71395;43.488;1.472;2023-11-19T05:01:26;100471.16;;;23.39;39.58
81931;BME280;71395;43.488;1.472;2023-11-19T05:03:53;100460.06;;;23.36;39.47
81931;BME280;71395;43.488;1.472;2023-11-19T05:06:18;100471.31;;;23.43;39.62
81931;BME280;71395;43.488;1.472;2023-11-19T05:08:44;100455.34;;;23.45;39.16
81931;BME280;71395;43.488;1.472;2023-11-19T05:11:09;100450.22;;;23.43;39.44
81931;BME280;71395;43.488;1.472;2023-11-19T05:13:37;100458.09;;;23.45;39.23
81931;BME280;71395;43.488;1.472;2023-11-19T05:16:03;100453.28;;;23.42;39.43
81931;BME280;71395;43.488;1.472;2023-11-19T05:18:29;100470.91;;;23.53;39.72
81931;BME280;71395;43.488;1.472;2023-11-19T05:20:54;100467.84;;;23.55;39.91
81931;BME280;71395;43.488;1.472;2023-11-19T05:23:19;100469.78;;;23.54;39.41
81931;BME280;71395;43.488;1.472;2023-11-19T05:25:45;100473.47;;;23.58;39.73
81931;BME280;71395;43.488;1.472;2023-11-19T05:28:11;100466.38;;;23.57;39.42
81931;BME280;71395;43.488;1.472;2023-11-19T05:30:36;100473.56;;;23.62;39.38
81931;BME280;71395;43.488;1.472;2023-11-19T05:33:01;100473.47;;;23.58;39.41
81931;BME280;71395;43.488;1.472;2023-11-19T05:35:27;100488.56;;;23.64;39.33
81931;BME280;71395;43.488;1.472;2023-11-19T05:37:52;100470.72;;;23.58;39.70
81931;BME280;71395;43.488;1.472;2023-11-19T05:40:18;100483.25;;;23.59;39.11
81931;BME280;71395;43.488;1.472;2023-11-19T05:42:45;100478.25;;;23.61;38.96
81931;BME280;71395;43.488;1.472;2023-11-19T05:45:11;100471.19;;;23.60;39.24
81931;BME280;71395;43.488;1.472;2023-11-19T05:47:37;100465.44;;;23.53;38.98
81931;BME280;71395;43.488;1.472;2023-11-19T05:50:02;100478.94;;;23.58;38.91
81931;BME280;71395;43.488;1.472;2023-11-19T05:52:29;100474.59;;;23.57;38.67
81931;BME280;71395;43.488;1.472;2023-11-19T05:55:02;100480.06;;;23.57;38.83
81931;BME280;71395;43.488;1.472;2023-11-19T05:57:34;100464.03;;;23.47;39.01
81931;BME280;71395;43.488;1.472;2023-11-19T06:00:00;100459.50;;;23.51;38.69
81931;BME280;71395;43.488;1.472;2023-11-19T06:02:25;100475.25;;;23.54;38.42
81931;BME280;71395;43.488;1.472;2023-11-19T06:04:52;100466.09;;;23.50;38.98
81931;BME280;71395;43.488;1.472;2023-11-19T06:07:18;100470.63;;;23.46;38.45
81931;BME280;71395;43.488;1.472;2023-11-19T06:09:43;100464.34;;;23.45;38.54
81931;BME280;71395;43.488;1.472;2023-11-19T06:12:09;100479.97;;;23.45;38.35
81931;BME280;71395;43.488;1.472;2023-11-19T06:14:34;100475.16;;;23.42;38.75
81931;BME280;71395;43.488;1.472;2023-11-19T06:17:00;100470.06;;;23.32;38.34
81931;BME280;71395;43.488;1.472;2023-11-19T06:19:25;100483.56;;;23.37;38.16
81931;BME280;71395;43.488;1.472;2023-11-19T06:21:50;100484.25;;;23.34;38.51
81931;BME280;71395;43.488;1.472;2023-11-19T06:24:16;100485.50;;;23.36;38.49
81931;BME280;71395;43.488;1.472;2023-11-19T06:26:41;100486.50;;;23.32;38.34
81931;BME280;71395;43.488;1.472;2023-11-19T06:29:07;100487.31;;;23.32;38.51
81931;BME280;71395;43.488;1.472;2023-11-19T06:31:32;100503.06;;;23.35;38.89
81931;BME280;71395;43.488;1.472;2023-11-19T06:33:58;100488.91;;;23.33;38.62
81931;BME280;71395;43.488;1.472;2023-11-19T06:36:24;100495.84;;;23.31;38.24
81931;BME280;71395;43.488;1.472;2023-11-19T06:38:49;100506.28;;;23.37;38.69
81931;BME280;71395;43.488;1.472;2023-11-19T06:41:14;100500.47;;;23.39;38.91
81931;BME280;71395;43.488;1.472;2023-11-19T06:43:40;100499.34;;;23.40;38.73
81931;BME280;71395;43.488;1.472;2023-11-19T06:46:05;100514.94;;;23.39;39.16
81931;BME280;71395;43.488;1.472;2023-11-19T06:48:34;100514.31;;;23.42;38.63
81931;BME280;71395;43.488;1.472;2023-11-19T06:51:00;100513.47;;;23.42;38.70
81931;BME280;71395;43.488;1.472;2023-11-19T06:53:25;100519.28;;;23.40;38.80
81931;BME280;71395;43.488;1.472;2023-11-19T06:55:53;100533.25;;;23.47;38.63
81931;BME280;71395;43.488;1.472;2023-11-19T06:58:19;100528.91;;;23.46;38.69
81931;BME280;71395;43.488;1.472;2023-11-19T07:00:44;100530.53;;;23.47;38.61
81931;BME280;71395;43.488;1.472;2023-11-19T07:03:11;100540.47;;;23.52;39.16
81931;BME280;71395;43.488;1.472;2023-11-19T07:05:36;100552.34;;;23.56;38.84
81931;BME280;71395;43.488;1.472;2023-11-19T07:08:06;100535.94;;;23.56;38.49
81931;BME280;71395;43.488;1.472;2023-11-19T07:10:32;100541.28;;;23.53;39.07
81931;BME280;71395;43.488;1.472;2023-11-19T07:12:58;100530.44;;;23.56;38.93
81931;BME280;71395;43.488;1.472;2023-11-19T07:15:24;100525.78;;;23.57;38.88
81931;BME280;71395;43.488;1.472;2023-11-19T07:17:49;100539.16;;;23.58;38.54
81931;BME280;71395;43.488;1.472;2023-11-19T07:20:15;100541.84;;;23.67;38.74
81931;BME280;71395;43.488;1.472;2023-11-19T07:22:44;100546.22;;;23.68;38.88
81931;BME280;71395;43.488;1.472;2023-11-19T07:25:15;100543.59;;;23.71;38.83
81931;BME280;71395;43.488;1.472;2023-11-19T07:27:40;100544.06;;;23.73;38.62
81931;BME280;71395;43.488;1.472;2023-11-19T07:30:06;100543.59;;;23.71;39.11
81931;BME280;71395;43.488;1.472;2023-11-19T07:32:34;100540.19;;;23.75;39.01
81931;BME280;71395;43.488;1.472;2023-11-19T07:35:00;100539.53;;;23.78;38.84
81931;BME280;71395;43.488;1.472;2023-11-19T07:37:25;100545.00;;;23.78;38.83
81931;BME280;71395;43.488;1.472;2023-11-19T07:39:51;100548.34;;;23.83;38.86
81931;BME280;71395;43.488;1.472;2023-11-19T07:42:16;100530.84;;;23.76;39.06
81931;BME280;71395;43.488;1.472;2023-11-19T07:44:43;100547.34;;;23.88;38.63
81931;BME280;71395;43.488;1.472;2023-11-19T07:47:08;100544.13;;;23.86;38.89
81931;BME280;71395;43.488;1.472;2023-11-19T07:49:34;100538.66;;;23.86;38.77
81931;BME280;71395;43.488;1.472;2023-11-19T07:51:59;100554.22;;;23.94;38.73
81931;BME280;71395;43.488;1.472;2023-11-19T07:54:25;100553.78;;;23.92;38.67
81931;BME280;71395;43.488;1.472;2023-11-19T07:56:50;100554.69;;;23.96;38.99
81931;BME280;71395;43.488;1.472;2023-11-19T07:59:16;100560.63;;;23.98;38.64
81931;BME280;71395;43.488;1.472;2023-11-19T08:01:41;100565.13;;;24.03;38.87
81931;BME280;71395;43.488;1.472;2023-11-19T08:04:07;100563.84;;;24.00;38.73
81931;BME280;71395;43.488;1.472;2023-11-19T08:06:32;100573.94;;;24.08;38.89
81931;BME280;71395;43.488;1.472;2023-11-19T08:08:57;100558.16;;;24.05;38.84
81931;BME280;71395;43.488;1.472;2023-11-19T08:11:24;100565.03;;;24.11;38.57
81931;BME280;71395;43.488;1.472;2023-11-19T08:13:49;100532.78;;;23.96;38.95
81931;BME280;71395;43.488;1.472;2023-11-19T08:16:15;100559.56;;;24.11;38.75
81931;BME280;71395;43.488;1.472;2023-11-19T08:18:42;100551.88;;;24.05;38.57
81931;BME280;71395;43.488;1.472;2023-11-19T08:21:08;100577.53;;;24.21;38.49
81931;BME280;71395;43.488;1.472;2023-11-19T08:23:34;100576.06;;;24.23;38.74
81931;BME280;71395;43.488;1.472;2023-11-19T08:25:59;100582.34;;;24.24;38.85
81931;BME280;71395;43.488;1.472;2023-11-19T08:28:25;100569.19;;;24.17;38.69
81931;BME280;71395;43.488;1.472;2023-11-19T08:30:50;100575.78;;;24.16;38.57
81931;BME280;71395;43.488;1.472;2023-11-19T08:33:16;100572.38;;;24.19;39.15
81931;BME280;71395;43.488;1.472;2023-11-19T08:35:42;100582.00;;;24.25;38.47
81931;BME280;71395;43.488;1.472;2023-11-19T08:38:07;100580.84;;;24.27;38.14
81931;BME280;71395;43.488;1.472;2023-11-19T08:40:33;100581.06;;;24.21;38.04
81931;BME280;71395;43.488;1.472;2023-11-19T08:42:58;100583.13;;;24.24;38.02
81931;BME280;71395;43.488;1.472;2023-11-19T08:45:24;100588.63;;;24.24;37.81
81931;BME280;71395;43.488;1.472;2023-11-19T08:47:50;100591.38;;;24.24;37.51
81931;BME280;71395;43.488;1.472;2023-11-19T08:50:15;100568.25;;;24.13;37.68
81931;BME280;71395;43.488;1.472;2023-11-19T08:52:41;100584.50;;;24.18;37.57
81931;BME280;71395;43.488;1.472;2023-11-19T08:55:07;100593.16;;;24.20;37.88
81931;BME280;71395;43.488;1.472;2023-11-19T08:57:32;100579.22;;;24.13;37.52
81931;BME280;71395;43.488;1.472;2023-11-19T08:59:58;100593.84;;;24.17;37.36
81931;BME280;71395;43.488;1.472;2023-11-19T09:02:23;100590.16;;;24.13;37.49
81931;BME280;71395;43.488;1.472;2023-11-19T09:04:49;100582.16;;;24.08;37.56
81931;BME280;71395;43.488;1.472;2023-11-19T09:07:14;100588.56;;;24.12;37.31
81931;BME280;71395;43.488;1.472;2023-11-19T09:09:40;100585.84;;;24.12;37.98
81931;BME280;71395;43.488;1.472;2023-11-19T09:12:05;100580.06;;;24.05;37.21
81931;BME280;71395;43.488;1.472;2023-11-19T09:14:31;100590.38;;;24.08;37.68
81931;BME280;71395;43.488;1.472;2023-11-19T09:16:57;100590.38;;;24.08;37.51
81931;BME280;71395;43.488;1.472;2023-11-19T09:19:23;100587.16;;;24.06;37.48
81931;BME280;71395;43.488;1.472;2023-11-19T09:21:49;100598.78;;;24.03;37.30
81931;BME280;71395;43.488;1.472;2023-11-19T09:24:15;100591.72;;;24.02;37.43
81931;BME280;71395;43.488;1.472;2023-11-19T09:26:40;100590.28;;;23.96;37.36
81931;BME280;71395;43.488;1.472;2023-11-19T09:29:07;100576.34;;;23.89;37.31
81931;BME280;71395;43.488;1.472;2023-11-19T09:31:33;100589.50;;;23.95;37.91
81931;BME280;71395;43.488;1.472;2023-11-19T09:33:58;100573.00;;;23.83;37.54
81931;BME280;71395;43.488;1.472;2023-11-19T09:36:24;100575.38;;;23.85;37.75
81931;BME280;71395;43.488;1.472;2023-11-19T09:38:49;100593.41;;;23.86;37.38
81931;BME280;71395;43.488;1.472;2023-11-19T09:41:15;100585.88;;;23.83;37.44
81931;BME280;71395;43.488;1.472;2023-11-19T09:43:42;100587.69;;;23.79;37.42
81931;BME280;71395;43.488;1.472;2023-11-19T09:46:10;100575.53;;;23.67;37.32
81931;BME280;71395;43.488;1.472;2023-11-19T09:48:38;100590.63;;;23.73;37.76
81931;BME280;71395;43.488;1.472;2023-11-19T09:51:04;100586.31;;;23.64;37.52
81931;BME280;71395;43.488;1.472;2023-11-19T09:53:30;100593.53;;;23.68;37.89
81931;BME280;71395;43.488;1.472;2023-11-19T09:55:58;100585.00;;;23.61;37.61
81931;BME280;71395;43.488;1.472;2023-11-19T09:58:25;100581.34;;;23.57;37.68
81931;BME280;71395;43.488;1.472;2023-11-19T10:00:51;100589.06;;;23.55;37.62
81931;BME280;71395;43.488;1.472;2023-11-19T10:03:17;100596.16;;;23.56;37.38
81931;BME280;71395;43.488;1.472;2023-11-19T10:05:43;100581.84;;;23.51;37.92
81931;BME280;71395;43.488;1.472;2023-11-19T10:08:08;100586.19;;;23.52;38.01
81931;BME280;71395;43.488;1.472;2023-11-19T10:10:36;100590.06;;;23.51;38.06
81931;BME280;71395;43.488;1.472;2023-11-19T10:13:02;100570.94;;;23.42;37.99
81931;BME280;71395;43.488;1.472;2023-11-19T10:15:27;100589.91;;;23.47;37.73
81931;BME280;71395;43.488;1.472;2023-11-19T10:17:57;100579.31;;;23.45;38.23
81931;BME280;71395;43.488;1.472;2023-11-19T10:20:22;100575.31;;;23.43;38.00
81931;BME280;71395;43.488;1.472;2023-11-19T10:22:48;100569.69;;;23.39;38.12
81931;BME280;71395;43.488;1.472;2023-11-19T10:25:24;100562.13;;;23.36;37.95
81931;BME280;71395;43.488;1.472;2023-11-19T10:27:53;100558.31;;;23.29;38.20
81931;BME280;71395;43.488;1.472;2023-11-19T10:30:30;100560.84;;;23.34;38.40
81931;BME280;71395;43.488;1.472;2023-11-19T10:33:12;100544.13;;;23.27;38.76
81931;BME280;71395;43.488;1.472;2023-11-19T10:38:20;100549.94;;;23.25;38.92
81931;BME280;71395;43.488;1.472;2023-11-19T10:40:47;100545.13;;;23.22;38.70
81931;BME280;71395;43.488;1.472;2023-11-19T10:43:13;100533.56;;;23.16;38.81
81931;BME280;71395;43.488;1.472;2023-11-19T10:45:38;100548.69;;;23.23;38.65
81931;BME280;71395;43.488;1.472;2023-11-19T10:48:05;100535.31;;;23.21;38.70
81931;BME280;71395;43.488;1.472;2023-11-19T10:50:33;100537.44;;;23.15;39.17
81931;BME280;71395;43.488;1.472;2023-11-19T10:53:00;100535.84;;;23.14;39.06
81931;BME280;71395;43.488;1.472;2023-11-19T10:55:30;100533.56;;;23.16;38.94
81931;BME280;71395;43.488;1.472;2023-11-19T10:58:01;100519.00;;;23.04;38.95
81931;BME280;71395;43.488;1.472;2023-11-19T11:00:33;100536.97;;;23.13;39.11
81931;BME280;71395;43.488;1.472;2023-11-19T11:03:01;100536.50;;;23.11;39.66
81931;BME280;71395;43.488;1.472;2023-11-19T11:05:29;100528.97;;;23.08;39.14
81931;BME280;71395;43.488;1.472;2023-11-19T11:07:57;100526.72;;;23.02;39.93
81931;BME280;71395;43.488;1.472;2023-11-19T11:10:26;100521.59;;;23.00;39.78
81931;BME280;71395;43.488;1.472;2023-11-19T11:12:52;100512.91;;;22.98;39.57
81931;BME280;71395;43.488;1.472;2023-11-19T11:15:29;100514.97;;;23.01;39.80
81931;BME280;71395;43.488;1.472;2023-11-19T11:17:59;100514.19;;;23.01;39.85
81931;BME280;71395;43.488;1.472;2023-11-19T11:20:28;100518.06;;;23.00;40.14
81931;BME280;71395;43.488;1.472;2023-11-19T11:39:29;100483.66;;;22.81;40.24
81931;BME280;71395;43.488;1.472;2023-11-19T11:45:07;100499.44;;;22.84;40.85
81931;BME280;71395;43.488;1.472;2023-11-19T11:58:08;100465.50;;;22.77;40.71
81931;BME280;71395;43.488;1.472;2023-11-19T12:00:39;100457.50;;;22.71;40.89
81931;BME280;71395;43.488;1.472;2023-11-19T12:03:06;100451.38;;;22.75;41.01
81931;BME280;71395;43.488;1.472;2023-11-19T12:05:32;100456.84;;;22.75;41.31
81931;BME280;71395;43.488;1.472;2023-11-19T12:08:03;100452.53;;;22.74;41.37
81931;BME280;71395;43.488;1.472;2023-11-19T12:10:30;100436.16;;;22.65;41.32
81931;BME280;71395;43.488;1.472;2023-11-19T12:12:59;100445.75;;;22.71;41.24
81931;BME280;71395;43.488;1.472;2023-11-19T12:15:26;100443.53;;;22.73;41.42
81931;BME280;71395;43.488;1.472;2023-11-19T12:17:53;100447.34;;;22.72;41.61
81931;BME280;71395;43.488;1.472;2023-11-19T12:20:26;100445.75;;;22.71;41.85
81931;BME280;71395;43.488;1.472;2023-11-19T12:22:52;100427.16;;;22.64;41.27
81931;BME280;71395;43.488;1.472;2023-11-19T12:25:19;100432.44;;;22.69;41.49
81931;BME280;71395;43.488;1.472;2023-11-19T12:27:50;100429.22;;;22.67;41.62
81931;BME280;71395;43.488;1.472;2023-11-19T12:30:25;100435.16;;;22.69;41.52
81931;BME280;71395;43.488;1.472;2023-11-19T12:32:52;100422.47;;;22.65;41.41
81931;BME280;71395;43.488;1.472;2023-11-19T12:35:19;100420.88;;;22.64;41.88
81931;BME280;71395;43.488;1.472;2023-11-19T12:37:51;100422.31;;;22.70;41.90
81931;BME280;71395;43.488;1.472;2023-11-19T12:42:44;100420.38;;;22.70;42.46
81931;BME280;71395;43.488;1.472;2023-11-19T12:45:10;100416.69;;;22.66;42.22
81931;BME280;71395;43.488;1.472;2023-11-19T12:47:39;100416.03;;;22.69;42.24
81931;BME280;71395;43.488;1.472;2023-11-19T12:50:08;100417.63;;;22.70;41.90
81931;BME280;71395;43.488;1.472;2023-11-19T12:52:38;100416.84;;;22.70;42.61
81931;BME280;71395;43.488;1.472;2023-11-19T12:57:48;100409.28;;;22.67;42.25
81931;BME280;71395;43.488;1.472;2023-11-19T13:00:20;100412.00;;;22.67;42.15
81931;BME280;71395;43.488;1.472;2023-11-19T13:02:50;100398.69;;;22.65;43.04
81931;BME280;71395;43.488;1.472;2023-11-19T13:05:34;100407.22;;;22.64;42.87
81931;BME280;71395;43.488;1.472;2023-11-19T13:08:07;100405.44;;;22.68;43.14
81931;BME280;71395;43.488;1.472;2023-11-19T13:10:50;100398.84;;;22.69;42.91
81931;BME280;71395;43.488;1.472;2023-11-19T13:13:16;100398.69;;;22.65;42.95
81931;BME280;71395;43.488;1.472;2023-11-19T13:15:42;100393.88;;;22.62;43.17
81931;BME280;71395;43.488;1.472;2023-11-19T13:18:10;100395.50;;;22.63;42.91
81931;BME280;71395;43.488;1.472;2023-11-19T13:20:35;100397.88;;;22.65;43.32
81931;BME280;71395;43.488;1.472;2023-11-19T13:23:03;100389.69;;;22.65;43.47
81931;BME280;71395;43.488;1.472;2023-11-19T13:25:29;100384.56;;;22.63;42.69